Ncc Najd — HZAK — position and weather

sailwx.info

Track history (hours):
 
Tides and Currents Weather Stations Pressure Air Temp Water Temp Dewpoint Dewpoint Depression Visibility Wind Speed Wind Dir Waves Ship Positions

Ncc Najd

Last reported at 2017-May-24 16:07 UTC. Time now 2017-May-29 11:14 UTC.
Position N 02°01' E 102°11'.

Length 183 m; draft 8 m.

Type: Tanker. MMSI: 403579000.

Date/timePositionNaut miles runAvg speedWind from/ knotsBaromVisibWave heightAir tempDewpointWater temp
2017-May-24 16:07N 02°01' E 102°11'315.5
2017-May-24 15:55N 01°59' E 102°13'615.2
2017-May-24 15:30N 01°56' E 102°19'715.0
2017-May-24 15:00N 01°53' E 102°25'714.5
2017-May-24 14:30N 01°50' E 102°32'1413.7
2017-May-24 13:30N 01°44' E 102°45'4513.3
2017-May-24 10:06N 01°17' E 103°21'316.0
2017-May-24 09:56N 01°16' E 103°23'715.6
2017-May-24 09:30N 01°13' E 103°29'815.6
2017-May-24 09:01N 01°11' E 103°37'714.5
2017-May-24 08:30N 01°08' E 103°43'5 9.6
2017-May-24 07:59N 01°10' E 103°48'3 5.5
2017-May-24 07:29N 01°12' E 103°51'510.2
2017-May-24 07:00N 01°14' E 103°55'611.3
2017-May-24 06:30N 01°15' E 104°00'  
2017-May-19 09:18N 22°36' E 119°49'414.8
2017-May-19 08:59N 22°40' E 119°50'1114.8
2017-May-19 08:15N 22°51' E 119°50'48113.5
2017-May-17 20:35N 29°59' E 123°54'114.1
2017-May-17 20:29N 30°00' E 123°54'713.8
2017-May-17 20:00N 30°07' E 123°57'713.9
2017-May-17 19:30N 30°13' E 123°60'1113.8
2017-May-17 18:43N 30°24' E 124°04'413.7
2017-May-17 18:25N 30°27' E 124°05'2213.9
2017-May-17 16:51N 30°48' E 124°13'514.1
2017-May-17 16:29N 30°53' E 124°15'714.2
2017-May-17 16:00N 30°60' E 124°18'914.7
2017-May-17 15:25N 31°08' E 124°21'3814.9
2017-May-17 12:50N 31°45' E 124°30'1015.6
2017-May-17 12:11N 31°56' E 124°30'415.6
2017-May-17 11:57N 31°59' E 124°30'1015.7
2017-May-17 11:20N 32°09' E 124°30'915.7
2017-May-17 10:43N 32°18' E 124°31'315.4
2017-May-17 10:30N 32°22' E 124°30'3314.3
2017-May-17 08:12N 32°55' E 124°30'313.8
2017-May-17 08:00N 32°57' E 124°30'2715.3
2017-May-17 06:13N 33°25' E 124°28'315.6
2017-May-17 06:00N 33°28' E 124°27'915.8
2017-May-17 05:26N 33°36' E 124°24'716.2
2017-May-17 04:59N 33°44' E 124°21'1016.2
2017-May-17 04:21N 33°53' E 124°18'615.7
2017-May-17 03:59N 33°59' E 124°19'1314.3
2017-May-17 03:04N 34°09' E 124°30'116.0
2017-May-17 02:59N 34°10' E 124°30'  
Track history (hours):
 
Tides and Currents Weather Stations Pressure Air Temp Water Temp Dewpoint Dewpoint Depression Visibility Wind Speed Wind Dir Waves Ship Positions

Ncc Najd

Last reported at 2017-May-24 16:07 UTC. Time now 2017-May-29 11:14 UTC.
Position N 02°01' E 102°11'.

Length 183 m; draft 8 m.

Type: Tanker. MMSI: 403579000.

Date/timePositionNaut miles runAvg speedWind from/ knotsBaromVisibWave heightAir tempDewpointWater temp
2017-May-24 16:07N 02°01' E 102°11'315.5
2017-May-24 15:55N 01°59' E 102°13'615.2
2017-May-24 15:30N 01°56' E 102°19'715.0
2017-May-24 15:00N 01°53' E 102°25'714.5
2017-May-24 14:30N 01°50' E 102°32'1413.7
2017-May-24 13:30N 01°44' E 102°45'4513.3
2017-May-24 10:06N 01°17' E 103°21'316.0
2017-May-24 09:56N 01°16' E 103°23'715.6
2017-May-24 09:30N 01°13' E 103°29'815.6
2017-May-24 09:01N 01°11' E 103°37'714.5
2017-May-24 08:30N 01°08' E 103°43'5 9.6
2017-May-24 07:59N 01°10' E 103°48'3 5.5
2017-May-24 07:29N 01°12' E 103°51'510.2
2017-May-24 07:00N 01°14' E 103°55'611.3
2017-May-24 06:30N 01°15' E 104°00'  
2017-May-19 09:18N 22°36' E 119°49'414.8
2017-May-19 08:59N 22°40' E 119°50'1114.8
2017-May-19 08:15N 22°51' E 119°50'48113.5
2017-May-17 20:35N 29°59' E 123°54'114.1
2017-May-17 20:29N 30°00' E 123°54'713.8
2017-May-17 20:00N 30°07' E 123°57'713.9
2017-May-17 19:30N 30°13' E 123°60'1113.8
2017-May-17 18:43N 30°24' E 124°04'413.7
2017-May-17 18:25N 30°27' E 124°05'2213.9
2017-May-17 16:51N 30°48' E 124°13'514.1
2017-May-17 16:29N 30°53' E 124°15'714.2
2017-May-17 16:00N 30°60' E 124°18'914.7
2017-May-17 15:25N 31°08' E 124°21'3814.9
2017-May-17 12:50N 31°45' E 124°30'1015.6
2017-May-17 12:11N 31°56' E 124°30'415.6
2017-May-17 11:57N 31°59' E 124°30'1015.7
2017-May-17 11:20N 32°09' E 124°30'915.7
2017-May-17 10:43N 32°18' E 124°31'315.4
2017-May-17 10:30N 32°22' E 124°30'3314.3
2017-May-17 08:12N 32°55' E 124°30'313.8
2017-May-17 08:00N 32°57' E 124°30'2715.3
2017-May-17 06:13N 33°25' E 124°28'315.6
2017-May-17 06:00N 33°28' E 124°27'915.8
2017-May-17 05:26N 33°36' E 124°24'716.2
2017-May-17 04:59N 33°44' E 124°21'1016.2
2017-May-17 04:21N 33°53' E 124°18'615.7
2017-May-17 03:59N 33°59' E 124°19'1314.3
2017-May-17 03:04N 34°09' E 124°30'116.0
2017-May-17 02:59N 34°10' E 124°30'  

Dump ship's entire track history